sensor_id;sensor_type;location;lat;lon;timestamp;P1;durP1;ratioP1;P2;durP2;ratioP2
77705;SDS011;66874;45.274;5.880;2023-05-29T00:00:31;6.97;;;2.78;;
77705;SDS011;66874;45.274;5.880;2023-05-29T00:02:56;6.95;;;2.95;;
77705;SDS011;66874;45.274;5.880;2023-05-29T00:05:22;5.00;;;3.17;;
77705;SDS011;66874;45.274;5.880;2023-05-29T00:07:47;4.70;;;3.03;;
77705;SDS011;66874;45.274;5.880;2023-05-29T00:10:14;9.18;;;4.00;;
77705;SDS011;66874;45.274;5.880;2023-05-29T00:12:40;8.13;;;4.47;;
77705;SDS011;66874;45.274;5.880;2023-05-29T00:15:06;9.45;;;4.35;;
77705;SDS011;66874;45.274;5.880;2023-05-29T00:17:31;6.93;;;4.60;;
77705;SDS011;66874;45.274;5.880;2023-05-29T00:19:58;10.93;;;4.82;;
77705;SDS011;66874;45.274;5.880;2023-05-29T00:22:24;8.32;;;4.78;;
77705;SDS011;66874;45.274;5.880;2023-05-29T00:24:50;6.45;;;4.20;;
77705;SDS011;66874;45.274;5.880;2023-05-29T00:27:15;11.25;;;4.53;;
77705;SDS011;66874;45.274;5.880;2023-05-29T00:29:41;9.02;;;4.45;;
77705;SDS011;66874;45.274;5.880;2023-05-29T00:32:06;7.63;;;4.40;;
77705;SDS011;66874;45.274;5.880;2023-05-29T00:34:32;13.35;;;4.40;;
77705;SDS011;66874;45.274;5.880;2023-05-29T00:36:57;7.72;;;4.70;;
77705;SDS011;66874;45.274;5.880;2023-05-29T00:39:23;7.53;;;4.18;;
77705;SDS011;66874;45.274;5.880;2023-05-29T00:41:48;5.57;;;3.80;;
77705;SDS011;66874;45.274;5.880;2023-05-29T00:44:20;11.70;;;4.25;;
77705;SDS011;66874;45.274;5.880;2023-05-29T00:46:46;5.72;;;3.65;;
77705;SDS011;66874;45.274;5.880;2023-05-29T00:51:39;12.50;;;4.38;;
77705;SDS011;66874;45.274;5.880;2023-05-29T00:54:11;5.65;;;3.60;;
77705;SDS011;66874;45.274;5.880;2023-05-29T00:56:38;8.15;;;4.20;;
77705;SDS011;66874;45.274;5.880;2023-05-29T00:59:07;14.52;;;4.35;;
77705;SDS011;66874;45.274;5.880;2023-05-29T01:01:33;7.43;;;3.70;;
77705;SDS011;66874;45.274;5.880;2023-05-29T01:04:00;7.85;;;4.18;;
77705;SDS011;66874;45.274;5.880;2023-05-29T01:08:54;4.75;;;3.10;;
77705;SDS011;66874;45.274;5.880;2023-05-29T01:17:39;5.80;;;3.30;;
77705;SDS011;66874;45.274;5.880;2023-05-29T01:29:07;7.65;;;4.10;;
77705;SDS011;66874;45.274;5.880;2023-05-29T01:31:35;9.95;;;3.72;;
77705;SDS011;66874;45.274;5.880;2023-05-29T01:34:02;6.80;;;4.10;;
77705;SDS011;66874;45.274;5.880;2023-05-29T01:36:27;8.43;;;4.07;;
77705;SDS011;66874;45.274;5.880;2023-05-29T01:38:53;9.40;;;4.00;;
77705;SDS011;66874;45.274;5.880;2023-05-29T01:41:21;5.57;;;3.55;;
77705;SDS011;66874;45.274;5.880;2023-05-29T01:43:48;11.60;;;3.83;;
77705;SDS011;66874;45.274;5.880;2023-05-29T01:46:15;7.97;;;3.80;;
77705;SDS011;66874;45.274;5.880;2023-05-29T01:48:42;9.80;;;4.10;;
77705;SDS011;66874;45.274;5.880;2023-05-29T01:51:08;9.13;;;3.53;;
77705;SDS011;66874;45.274;5.880;2023-05-29T01:53:37;9.60;;;4.15;;
77705;SDS011;66874;45.274;5.880;2023-05-29T01:56:07;7.25;;;3.92;;
77705;SDS011;66874;45.274;5.880;2023-05-29T01:58:37;7.38;;;4.18;;
77705;SDS011;66874;45.274;5.880;2023-05-29T02:01:05;6.00;;;3.58;;
77705;SDS011;66874;45.274;5.880;2023-05-29T02:03:32;7.40;;;4.35;;
77705;SDS011;66874;45.274;5.880;2023-05-29T02:05:58;7.70;;;3.90;;
77705;SDS011;66874;45.274;5.880;2023-05-29T02:08:25;9.15;;;3.47;;
77705;SDS011;66874;45.274;5.880;2023-05-29T02:10:51;10.20;;;3.95;;
77705;SDS011;66874;45.274;5.880;2023-05-29T02:13:16;8.38;;;3.35;;
77705;SDS011;66874;45.274;5.880;2023-05-29T02:15:42;8.30;;;3.47;;
77705;SDS011;66874;45.274;5.880;2023-05-29T02:18:13;9.60;;;4.15;;
77705;SDS011;66874;45.274;5.880;2023-05-29T02:20:40;8.95;;;3.85;;
77705;SDS011;66874;45.274;5.880;2023-05-29T02:23:07;6.65;;;4.05;;
77705;SDS011;66874;45.274;5.880;2023-05-29T02:25:33;10.15;;;4.25;;
77705;SDS011;66874;45.274;5.880;2023-05-29T02:27:59;7.25;;;4.00;;
77705;SDS011;66874;45.274;5.880;2023-05-29T02:30:24;14.38;;;4.38;;
77705;SDS011;66874;45.274;5.880;2023-05-29T02:32:50;5.40;;;3.63;;
77705;SDS011;66874;45.274;5.880;2023-05-29T02:35:16;7.50;;;4.43;;
77705;SDS011;66874;45.274;5.880;2023-05-29T02:37:43;6.05;;;4.00;;
77705;SDS011;66874;45.274;5.880;2023-05-29T02:40:08;6.57;;;4.40;;
77705;SDS011;66874;45.274;5.880;2023-05-29T02:42:35;6.72;;;4.47;;
77705;SDS011;66874;45.274;5.880;2023-05-29T02:45:00;7.60;;;4.68;;
77705;SDS011;66874;45.274;5.880;2023-05-29T02:47:26;10.90;;;4.80;;
77705;SDS011;66874;45.274;5.880;2023-05-29T02:49:51;8.48;;;4.18;;
77705;SDS011;66874;45.274;5.880;2023-05-29T02:52:16;7.53;;;4.53;;
77705;SDS011;66874;45.274;5.880;2023-05-29T02:54:42;14.52;;;4.20;;
77705;SDS011;66874;45.274;5.880;2023-05-29T02:57:07;6.72;;;4.03;;
77705;SDS011;66874;45.274;5.880;2023-05-29T02:59:33;8.82;;;4.50;;
77705;SDS011;66874;45.274;5.880;2023-05-29T03:01:58;5.95;;;4.13;;
77705;SDS011;66874;45.274;5.880;2023-05-29T03:04:23;6.10;;;3.67;;
77705;SDS011;66874;45.274;5.880;2023-05-29T03:06:49;7.45;;;4.53;;
77705;SDS011;66874;45.274;5.880;2023-05-29T03:09:14;8.13;;;4.03;;
77705;SDS011;66874;45.274;5.880;2023-05-29T03:11:41;9.35;;;3.97;;
77705;SDS011;66874;45.274;5.880;2023-05-29T03:14:07;8.55;;;3.90;;
77705;SDS011;66874;45.274;5.880;2023-05-29T03:16:32;7.22;;;4.18;;
77705;SDS011;66874;45.274;5.880;2023-05-29T03:18:58;8.73;;;3.80;;
77705;SDS011;66874;45.274;5.880;2023-05-29T03:21:23;7.07;;;4.03;;
77705;SDS011;66874;45.274;5.880;2023-05-29T03:23:49;16.40;;;4.05;;
77705;SDS011;66874;45.274;5.880;2023-05-29T03:26:14;6.18;;;4.07;;
77705;SDS011;66874;45.274;5.880;2023-05-29T03:28:40;6.82;;;3.60;;
77705;SDS011;66874;45.274;5.880;2023-05-29T03:31:06;10.82;;;3.35;;
77705;SDS011;66874;45.274;5.880;2023-05-29T03:33:32;4.82;;;3.13;;
77705;SDS011;66874;45.274;5.880;2023-05-29T03:35:58;4.70;;;3.60;;
77705;SDS011;66874;45.274;5.880;2023-05-29T03:38:23;8.45;;;3.25;;
77705;SDS011;66874;45.274;5.880;2023-05-29T03:40:48;9.00;;;3.15;;
77705;SDS011;66874;45.274;5.880;2023-05-29T03:43:14;8.02;;;3.10;;
77705;SDS011;66874;45.274;5.880;2023-05-29T03:45:39;8.18;;;3.20;;
77705;SDS011;66874;45.274;5.880;2023-05-29T03:48:05;8.50;;;3.45;;
77705;SDS011;66874;45.274;5.880;2023-05-29T03:50:30;5.35;;;2.88;;
77705;SDS011;66874;45.274;5.880;2023-05-29T03:52:56;6.00;;;3.35;;
77705;SDS011;66874;45.274;5.880;2023-05-29T03:55:21;7.43;;;3.83;;
77705;SDS011;66874;45.274;5.880;2023-05-29T03:57:46;4.03;;;2.67;;
77705;SDS011;66874;45.274;5.880;2023-05-29T04:00:12;5.65;;;3.30;;
77705;SDS011;66874;45.274;5.880;2023-05-29T04:02:38;10.07;;;3.35;;
77705;SDS011;66874;45.274;5.880;2023-05-29T04:05:07;6.35;;;3.25;;
77705;SDS011;66874;45.274;5.880;2023-05-29T04:07:34;6.75;;;2.58;;
77705;SDS011;66874;45.274;5.880;2023-05-29T04:10:01;6.05;;;3.60;;
77705;SDS011;66874;45.274;5.880;2023-05-29T04:12:27;4.25;;;2.92;;
77705;SDS011;66874;45.274;5.880;2023-05-29T04:14:52;7.20;;;2.88;;
77705;SDS011;66874;45.274;5.880;2023-05-29T04:17:18;7.55;;;3.55;;
77705;SDS011;66874;45.274;5.880;2023-05-29T04:19:43;5.78;;;3.28;;
77705;SDS011;66874;45.274;5.880;2023-05-29T04:22:08;7.75;;;3.03;;
77705;SDS011;66874;45.274;5.880;2023-05-29T04:24:34;4.85;;;3.13;;
77705;SDS011;66874;45.274;5.880;2023-05-29T04:27:00;13.68;;;2.92;;
77705;SDS011;66874;45.274;5.880;2023-05-29T04:29:26;6.05;;;3.22;;
77705;SDS011;66874;45.274;5.880;2023-05-29T04:31:53;13.77;;;3.47;;
77705;SDS011;66874;45.274;5.880;2023-05-29T04:34:20;8.70;;;4.63;;
77705;SDS011;66874;45.274;5.880;2023-05-29T04:36:46;7.40;;;4.10;;
77705;SDS011;66874;45.274;5.880;2023-05-29T04:39:13;8.05;;;2.78;;
77705;SDS011;66874;45.274;5.880;2023-05-29T04:41:42;6.05;;;3.30;;
77705;SDS011;66874;45.274;5.880;2023-05-29T04:44:08;5.47;;;3.25;;
77705;SDS011;66874;45.274;5.880;2023-05-29T04:46:36;5.72;;;3.30;;
77705;SDS011;66874;45.274;5.880;2023-05-29T04:49:03;6.72;;;3.25;;
77705;SDS011;66874;45.274;5.880;2023-05-29T04:51:29;9.02;;;3.05;;
77705;SDS011;66874;45.274;5.880;2023-05-29T04:53:55;8.30;;;3.13;;
77705;SDS011;66874;45.274;5.880;2023-05-29T04:56:21;7.35;;;3.83;;
77705;SDS011;66874;45.274;5.880;2023-05-29T04:58:47;8.02;;;3.45;;
77705;SDS011;66874;45.274;5.880;2023-05-29T05:01:13;4.70;;;3.00;;
77705;SDS011;66874;45.274;5.880;2023-05-29T05:03:42;8.38;;;3.70;;
77705;SDS011;66874;45.274;5.880;2023-05-29T05:06:08;8.55;;;4.88;;
77705;SDS011;66874;45.274;5.880;2023-05-29T05:08:34;7.68;;;3.95;;
77705;SDS011;66874;45.274;5.880;2023-05-29T05:11:00;11.40;;;4.65;;
77705;SDS011;66874;45.274;5.880;2023-05-29T05:13:25;5.88;;;3.72;;
77705;SDS011;66874;45.274;5.880;2023-05-29T05:15:52;7.20;;;4.05;;
77705;SDS011;66874;45.274;5.880;2023-05-29T05:18:18;9.68;;;4.32;;
77705;SDS011;66874;45.274;5.880;2023-05-29T05:20:43;6.15;;;4.60;;
77705;SDS011;66874;45.274;5.880;2023-05-29T05:23:09;8.43;;;4.68;;
77705;SDS011;66874;45.274;5.880;2023-05-29T05:25:35;10.55;;;4.63;;
77705;SDS011;66874;45.274;5.880;2023-05-29T05:28:01;6.28;;;4.30;;
77705;SDS011;66874;45.274;5.880;2023-05-29T05:30:28;5.95;;;4.55;;
77705;SDS011;66874;45.274;5.880;2023-05-29T05:32:53;9.88;;;4.53;;
77705;SDS011;66874;45.274;5.880;2023-05-29T05:35:19;10.50;;;5.05;;
77705;SDS011;66874;45.274;5.880;2023-05-29T05:37:45;7.07;;;4.22;;
77705;SDS011;66874;45.274;5.880;2023-05-29T05:40:10;7.88;;;4.53;;
77705;SDS011;66874;45.274;5.880;2023-05-29T05:42:36;8.20;;;4.38;;
77705;SDS011;66874;45.274;5.880;2023-05-29T05:45:01;6.43;;;4.60;;
77705;SDS011;66874;45.274;5.880;2023-05-29T05:47:28;9.98;;;4.93;;
77705;SDS011;66874;45.274;5.880;2023-05-29T05:49:53;10.82;;;4.93;;
77705;SDS011;66874;45.274;5.880;2023-05-29T05:52:19;7.72;;;4.22;;
77705;SDS011;66874;45.274;5.880;2023-05-29T05:54:45;8.77;;;4.07;;
77705;SDS011;66874;45.274;5.880;2023-05-29T05:57:10;6.15;;;3.95;;
77705;SDS011;66874;45.274;5.880;2023-05-29T05:59:36;6.97;;;3.85;;
77705;SDS011;66874;45.274;5.880;2023-05-29T06:02:01;8.85;;;4.45;;
77705;SDS011;66874;45.274;5.880;2023-05-29T06:04:28;6.13;;;3.80;;
77705;SDS011;66874;45.274;5.880;2023-05-29T06:06:54;5.57;;;3.65;;
77705;SDS011;66874;45.274;5.880;2023-05-29T06:09:20;7.35;;;4.25;;
77705;SDS011;66874;45.274;5.880;2023-05-29T06:11:45;9.23;;;3.55;;
77705;SDS011;66874;45.274;5.880;2023-05-29T06:14:11;8.55;;;3.95;;
77705;SDS011;66874;45.274;5.880;2023-05-29T06:16:36;9.40;;;3.83;;
77705;SDS011;66874;45.274;5.880;2023-05-29T06:19:02;6.53;;;3.47;;
77705;SDS011;66874;45.274;5.880;2023-05-29T06:21:27;9.00;;;3.67;;
77705;SDS011;66874;45.274;5.880;2023-05-29T06:23:53;7.63;;;3.88;;
77705;SDS011;66874;45.274;5.880;2023-05-29T06:26:18;7.40;;;3.42;;
77705;SDS011;66874;45.274;5.880;2023-05-29T06:28:43;5.60;;;3.65;;
77705;SDS011;66874;45.274;5.880;2023-05-29T06:31:09;6.43;;;3.88;;
77705;SDS011;66874;45.274;5.880;2023-05-29T06:33:35;6.22;;;3.63;;
77705;SDS011;66874;45.274;5.880;2023-05-29T06:36:01;8.80;;;4.05;;
77705;SDS011;66874;45.274;5.880;2023-05-29T06:38:26;5.90;;;3.92;;
77705;SDS011;66874;45.274;5.880;2023-05-29T06:40:51;6.72;;;3.88;;
77705;SDS011;66874;45.274;5.880;2023-05-29T06:43:17;6.10;;;3.70;;
77705;SDS011;66874;45.274;5.880;2023-05-29T06:45:42;5.32;;;4.28;;
77705;SDS011;66874;45.274;5.880;2023-05-29T06:48:07;10.52;;;3.95;;
77705;SDS011;66874;45.274;5.880;2023-05-29T06:50:33;7.97;;;3.83;;
77705;SDS011;66874;45.274;5.880;2023-05-29T06:52:59;6.18;;;4.13;;
77705;SDS011;66874;45.274;5.880;2023-05-29T06:55:24;7.70;;;4.57;;
77705;SDS011;66874;45.274;5.880;2023-05-29T06:57:50;6.72;;;4.30;;
77705;SDS011;66874;45.274;5.880;2023-05-29T07:00:15;6.85;;;3.78;;
77705;SDS011;66874;45.274;5.880;2023-05-29T07:02:42;6.80;;;4.20;;
77705;SDS011;66874;45.274;5.880;2023-05-29T07:05:07;8.85;;;4.00;;
77705;SDS011;66874;45.274;5.880;2023-05-29T07:07:33;7.53;;;4.07;;
77705;SDS011;66874;45.274;5.880;2023-05-29T07:09:58;7.07;;;3.97;;
77705;SDS011;66874;45.274;5.880;2023-05-29T07:12:23;10.63;;;4.65;;
77705;SDS011;66874;45.274;5.880;2023-05-29T07:14:49;7.50;;;4.88;;
77705;SDS011;66874;45.274;5.880;2023-05-29T07:17:14;9.38;;;4.93;;
77705;SDS011;66874;45.274;5.880;2023-05-29T07:19:40;6.75;;;4.65;;
77705;SDS011;66874;45.274;5.880;2023-05-29T07:22:06;9.27;;;5.50;;
77705;SDS011;66874;45.274;5.880;2023-05-29T07:24:31;9.50;;;4.85;;
77705;SDS011;66874;45.274;5.880;2023-05-29T07:26:56;8.10;;;4.45;;
77705;SDS011;66874;45.274;5.880;2023-05-29T07:29:22;6.85;;;4.40;;
77705;SDS011;66874;45.274;5.880;2023-05-29T07:31:52;8.67;;;4.50;;
77705;SDS011;66874;45.274;5.880;2023-05-29T07:34:17;12.60;;;4.68;;
77705;SDS011;66874;45.274;5.880;2023-05-29T07:37:01;7.75;;;4.30;;
77705;SDS011;66874;45.274;5.880;2023-05-29T07:39:28;7.22;;;4.70;;
77705;SDS011;66874;45.274;5.880;2023-05-29T07:41:55;6.55;;;4.18;;
77705;SDS011;66874;45.274;5.880;2023-05-29T07:44:20;6.95;;;4.35;;
77705;SDS011;66874;45.274;5.880;2023-05-29T07:46:46;8.85;;;4.95;;
77705;SDS011;66874;45.274;5.880;2023-05-29T07:49:11;7.65;;;4.13;;
77705;SDS011;66874;45.274;5.880;2023-05-29T07:51:37;5.93;;;4.15;;
77705;SDS011;66874;45.274;5.880;2023-05-29T07:54:02;6.00;;;4.05;;
77705;SDS011;66874;45.274;5.880;2023-05-29T07:56:28;10.13;;;4.88;;
77705;SDS011;66874;45.274;5.880;2023-05-29T07:58:54;9.32;;;4.45;;
77705;SDS011;66874;45.274;5.880;2023-05-29T08:01:21;7.20;;;3.72;;
77705;SDS011;66874;45.274;5.880;2023-05-29T08:03:47;5.18;;;3.78;;
77705;SDS011;66874;45.274;5.880;2023-05-29T08:06:12;6.13;;;4.05;;
77705;SDS011;66874;45.274;5.880;2023-05-29T08:08:38;6.95;;;4.47;;
77705;SDS011;66874;45.274;5.880;2023-05-29T08:11:04;12.18;;;3.97;;
77705;SDS011;66874;45.274;5.880;2023-05-29T08:13:29;6.45;;;3.88;;
77705;SDS011;66874;45.274;5.880;2023-05-29T08:15:55;4.97;;;3.50;;
77705;SDS011;66874;45.274;5.880;2023-05-29T08:18:24;5.75;;;3.17;;
77705;SDS011;66874;45.274;5.880;2023-05-29T08:20:50;9.05;;;3.92;;
77705;SDS011;66874;45.274;5.880;2023-05-29T08:23:16;6.82;;;3.70;;
77705;SDS011;66874;45.274;5.880;2023-05-29T08:25:41;6.15;;;3.90;;
77705;SDS011;66874;45.274;5.880;2023-05-29T08:28:07;6.90;;;3.83;;
77705;SDS011;66874;45.274;5.880;2023-05-29T08:30:32;6.32;;;4.00;;
77705;SDS011;66874;45.274;5.880;2023-05-29T08:32:58;5.57;;;3.30;;
77705;SDS011;66874;45.274;5.880;2023-05-29T08:35:23;6.50;;;4.00;;
77705;SDS011;66874;45.274;5.880;2023-05-29T08:37:48;10.25;;;3.63;;
77705;SDS011;66874;45.274;5.880;2023-05-29T08:40:14;6.13;;;3.67;;
77705;SDS011;66874;45.274;5.880;2023-05-29T08:42:43;6.07;;;3.92;;
77705;SDS011;66874;45.274;5.880;2023-05-29T08:45:13;8.38;;;4.03;;
77705;SDS011;66874;45.274;5.880;2023-05-29T08:47:40;6.03;;;3.50;;
77705;SDS011;66874;45.274;5.880;2023-05-29T08:50:06;5.82;;;3.58;;
77705;SDS011;66874;45.274;5.880;2023-05-29T08:52:36;5.95;;;3.65;;
77705;SDS011;66874;45.274;5.880;2023-05-29T08:55:02;9.38;;;3.42;;
77705;SDS011;66874;45.274;5.880;2023-05-29T08:57:28;7.03;;;3.70;;
77705;SDS011;66874;45.274;5.880;2023-05-29T08:59:55;5.82;;;3.92;;
77705;SDS011;66874;45.274;5.880;2023-05-29T09:02:22;6.60;;;4.33;;
77705;SDS011;66874;45.274;5.880;2023-05-29T09:04:47;8.05;;;3.72;;
77705;SDS011;66874;45.274;5.880;2023-05-29T09:07:21;6.15;;;4.32;;
77705;SDS011;66874;45.274;5.880;2023-05-29T09:09:47;5.78;;;3.13;;
77705;SDS011;66874;45.274;5.880;2023-05-29T09:12:13;5.60;;;3.63;;
77705;SDS011;66874;45.274;5.880;2023-05-29T09:14:42;7.03;;;4.07;;
77705;SDS011;66874;45.274;5.880;2023-05-29T09:17:09;7.00;;;4.28;;
77705;SDS011;66874;45.274;5.880;2023-05-29T09:19:36;6.07;;;3.70;;
77705;SDS011;66874;45.274;5.880;2023-05-29T09:22:07;7.80;;;3.95;;
77705;SDS011;66874;45.274;5.880;2023-05-29T09:24:33;4.85;;;3.85;;
77705;SDS011;66874;45.274;5.880;2023-05-29T09:27:00;8.00;;;4.20;;
77705;SDS011;66874;45.274;5.880;2023-05-29T09:29:26;7.68;;;4.13;;
77705;SDS011;66874;45.274;5.880;2023-05-29T09:32:14;8.32;;;3.45;;
77705;SDS011;66874;45.274;5.880;2023-05-29T09:34:42;6.38;;;4.20;;
77705;SDS011;66874;45.274;5.880;2023-05-29T09:37:08;7.33;;;3.87;;
77705;SDS011;66874;45.274;5.880;2023-05-29T09:39:44;6.97;;;3.80;;
77705;SDS011;66874;45.274;5.880;2023-05-29T09:42:10;6.40;;;4.03;;
77705;SDS011;66874;45.274;5.880;2023-05-29T09:44:36;7.88;;;4.43;;
77705;SDS011;66874;45.274;5.880;2023-05-29T09:47:02;4.88;;;3.55;;
77705;SDS011;66874;45.274;5.880;2023-05-29T09:49:29;7.75;;;3.85;;
77705;SDS011;66874;45.274;5.880;2023-05-29T09:51:56;6.97;;;3.67;;
77705;SDS011;66874;45.274;5.880;2023-05-29T09:54:24;5.68;;;3.83;;
77705;SDS011;66874;45.274;5.880;2023-05-29T09:56:53;8.52;;;3.85;;
77705;SDS011;66874;45.274;5.880;2023-05-29T09:59:21;5.82;;;3.80;;
77705;SDS011;66874;45.274;5.880;2023-05-29T10:01:48;7.40;;;4.53;;
77705;SDS011;66874;45.274;5.880;2023-05-29T10:04:20;8.20;;;4.70;;
77705;SDS011;66874;45.274;5.880;2023-05-29T10:06:46;7.32;;;4.18;;
77705;SDS011;66874;45.274;5.880;2023-05-29T10:09:14;6.07;;;3.85;;
77705;SDS011;66874;45.274;5.880;2023-05-29T10:11:43;5.80;;;3.80;;
77705;SDS011;66874;45.274;5.880;2023-05-29T10:14:09;5.57;;;3.72;;
77705;SDS011;66874;45.274;5.880;2023-05-29T10:16:41;5.68;;;3.65;;
77705;SDS011;66874;45.274;5.880;2023-05-29T10:19:10;5.68;;;3.63;;
77705;SDS011;66874;45.274;5.880;2023-05-29T10:21:39;5.05;;;3.88;;
77705;SDS011;66874;45.274;5.880;2023-05-29T10:24:07;7.18;;;3.97;;
77705;SDS011;66874;45.274;5.880;2023-05-29T10:26:39;6.68;;;4.03;;
77705;SDS011;66874;45.274;5.880;2023-05-29T10:31:39;4.55;;;3.30;;
77705;SDS011;66874;45.274;5.880;2023-05-29T10:37:06;6.88;;;3.65;;
77705;SDS011;66874;45.274;5.880;2023-05-29T10:39:33;5.40;;;3.67;;
77705;SDS011;66874;45.274;5.880;2023-05-29T10:41:58;5.78;;;3.40;;
77705;SDS011;66874;45.274;5.880;2023-05-29T10:44:45;6.25;;;4.05;;
77705;SDS011;66874;45.274;5.880;2023-05-29T10:47:10;6.95;;;3.78;;
77705;SDS011;66874;45.274;5.880;2023-05-29T10:49:37;8.63;;;3.92;;
77705;SDS011;66874;45.274;5.880;2023-05-29T10:52:03;5.78;;;4.03;;
77705;SDS011;66874;45.274;5.880;2023-05-29T10:54:29;6.03;;;3.75;;
77705;SDS011;66874;45.274;5.880;2023-05-29T10:57:15;5.15;;;4.03;;
77705;SDS011;66874;45.274;5.880;2023-05-29T10:59:40;5.32;;;4.07;;
77705;SDS011;66874;45.274;5.880;2023-05-29T11:02:06;5.35;;;3.53;;
77705;SDS011;66874;45.274;5.880;2023-05-29T11:04:31;5.57;;;3.85;;
77705;SDS011;66874;45.274;5.880;2023-05-29T11:09:28;7.13;;;3.80;;
77705;SDS011;66874;45.274;5.880;2023-05-29T11:14:46;4.47;;;3.45;;
77705;SDS011;66874;45.274;5.880;2023-05-29T11:25:24;6.60;;;4.28;;
77705;SDS011;66874;45.274;5.880;2023-05-29T11:27:50;6.32;;;4.60;;
77705;SDS011;66874;45.274;5.880;2023-05-29T11:30:21;5.57;;;3.80;;
77705;SDS011;66874;45.274;5.880;2023-05-29T11:32:47;5.80;;;3.92;;
77705;SDS011;66874;45.274;5.880;2023-05-29T11:35:14;6.20;;;4.30;;
77705;SDS011;66874;45.274;5.880;2023-05-29T11:37:43;6.00;;;4.30;;
77705;SDS011;66874;45.274;5.880;2023-05-29T11:40:11;5.28;;;4.00;;
77705;SDS011;66874;45.274;5.880;2023-05-29T11:42:41;5.28;;;4.50;;
77705;SDS011;66874;45.274;5.880;2023-05-29T11:47:51;7.55;;;3.80;;
77705;SDS011;66874;45.274;5.880;2023-05-29T11:50:30;6.35;;;3.72;;
77705;SDS011;66874;45.274;5.880;2023-05-29T11:52:58;7.25;;;4.25;;
77705;SDS011;66874;45.274;5.880;2023-05-29T11:55:25;6.82;;;4.30;;
77705;SDS011;66874;45.274;5.880;2023-05-29T11:57:55;6.25;;;4.35;;
77705;SDS011;66874;45.274;5.880;2023-05-29T12:00:23;5.07;;;4.00;;
77705;SDS011;66874;45.274;5.880;2023-05-29T12:02:49;6.15;;;4.25;;
77705;SDS011;66874;45.274;5.880;2023-05-29T12:05:16;5.65;;;3.85;;
77705;SDS011;66874;45.274;5.880;2023-05-29T12:07:50;4.63;;;3.97;;
77705;SDS011;66874;45.274;5.880;2023-05-29T12:10:18;7.07;;;4.20;;
77705;SDS011;66874;45.274;5.880;2023-05-29T12:12:51;7.85;;;3.67;;
77705;SDS011;66874;45.274;5.880;2023-05-29T12:15:21;6.35;;;3.80;;
77705;SDS011;66874;45.274;5.880;2023-05-29T12:17:48;4.53;;;4.05;;
77705;SDS011;66874;45.274;5.880;2023-05-29T12:20:15;5.03;;;3.85;;
77705;SDS011;66874;45.274;5.880;2023-05-29T12:22:42;5.40;;;3.92;;
77705;SDS011;66874;45.274;5.880;2023-05-29T12:27:45;5.07;;;4.22;;
77705;SDS011;66874;45.274;5.880;2023-05-29T12:32:43;4.60;;;3.88;;
77705;SDS011;66874;45.274;5.880;2023-05-29T12:37:49;5.60;;;4.25;;
77705;SDS011;66874;45.274;5.880;2023-05-29T12:40:20;7.75;;;4.18;;
77705;SDS011;66874;45.274;5.880;2023-05-29T12:43:03;5.60;;;4.53;;
77705;SDS011;66874;45.274;5.880;2023-05-29T12:45:31;4.45;;;4.05;;
77705;SDS011;66874;45.274;5.880;2023-05-29T12:48:04;5.45;;;4.15;;
77705;SDS011;66874;45.274;5.880;2023-05-29T12:50:32;4.57;;;4.18;;
77705;SDS011;66874;45.274;5.880;2023-05-29T12:53:04;5.93;;;4.75;;
77705;SDS011;66874;45.274;5.880;2023-05-29T12:55:34;8.65;;;4.72;;
77705;SDS011;66874;45.274;5.880;2023-05-29T12:58:08;5.82;;;4.38;;
77705;SDS011;66874;45.274;5.880;2023-05-29T13:00:35;7.18;;;4.72;;
77705;SDS011;66874;45.274;5.880;2023-05-29T13:03:02;6.32;;;4.82;;
77705;SDS011;66874;45.274;5.880;2023-05-29T13:05:27;7.33;;;4.40;;
77705;SDS011;66874;45.274;5.880;2023-05-29T13:07:53;7.10;;;4.77;;
77705;SDS011;66874;45.274;5.880;2023-05-29T13:10:18;6.70;;;4.37;;
77705;SDS011;66874;45.274;5.880;2023-05-29T13:12:45;5.93;;;5.05;;
77705;SDS011;66874;45.274;5.880;2023-05-29T13:15:11;8.57;;;4.60;;
77705;SDS011;66874;45.274;5.880;2023-05-29T13:17:39;7.85;;;4.90;;
77705;SDS011;66874;45.274;5.880;2023-05-29T13:20:09;6.22;;;4.55;;
77705;SDS011;66874;45.274;5.880;2023-05-29T13:22:36;5.97;;;4.32;;
77705;SDS011;66874;45.274;5.880;2023-05-29T13:25:02;8.32;;;4.30;;
77705;SDS011;66874;45.274;5.880;2023-05-29T13:29:54;4.97;;;4.47;;
77705;SDS011;66874;45.274;5.880;2023-05-29T13:32:20;8.90;;;6.00;;
77705;SDS011;66874;45.274;5.880;2023-05-29T13:34:45;6.73;;;4.70;;
77705;SDS011;66874;45.274;5.880;2023-05-29T13:37:11;6.73;;;4.57;;
77705;SDS011;66874;45.274;5.880;2023-05-29T13:39:36;6.00;;;4.43;;
77705;SDS011;66874;45.274;5.880;2023-05-29T13:42:01;5.53;;;4.43;;
77705;SDS011;66874;45.274;5.880;2023-05-29T13:44:27;7.33;;;4.93;;
77705;SDS011;66874;45.274;5.880;2023-05-29T13:46:52;6.40;;;4.80;;
77705;SDS011;66874;45.274;5.880;2023-05-29T13:49:18;7.90;;;4.87;;
77705;SDS011;66874;45.274;5.880;2023-05-29T13:51:44;7.57;;;4.95;;
77705;SDS011;66874;45.274;5.880;2023-05-29T13:54:11;7.38;;;4.63;;
77705;SDS011;66874;45.274;5.880;2023-05-29T13:56:37;6.83;;;4.50;;
77705;SDS011;66874;45.274;5.880;2023-05-29T13:59:02;11.03;;;5.07;;
77705;SDS011;66874;45.274;5.880;2023-05-29T14:01:30;5.18;;;4.45;;
77705;SDS011;66874;45.274;5.880;2023-05-29T14:03:57;5.18;;;4.35;;
77705;SDS011;66874;45.274;5.880;2023-05-29T14:06:22;8.13;;;4.70;;
77705;SDS011;66874;45.274;5.880;2023-05-29T14:08:47;7.07;;;4.50;;
77705;SDS011;66874;45.274;5.880;2023-05-29T14:11:13;6.13;;;4.90;;
77705;SDS011;66874;45.274;5.880;2023-05-29T14:13:39;11.43;;;5.00;;
77705;SDS011;66874;45.274;5.880;2023-05-29T14:16:04;10.50;;;5.00;;
77705;SDS011;66874;45.274;5.880;2023-05-29T14:18:30;6.57;;;4.50;;
77705;SDS011;66874;45.274;5.880;2023-05-29T14:20:55;6.70;;;4.83;;
77705;SDS011;66874;45.274;5.880;2023-05-29T14:23:21;6.37;;;4.77;;
77705;SDS011;66874;45.274;5.880;2023-05-29T14:25:46;5.47;;;4.50;;
77705;SDS011;66874;45.274;5.880;2023-05-29T14:28:11;8.37;;;5.27;;
77705;SDS011;66874;45.274;5.880;2023-05-29T14:30:37;12.73;;;4.60;;
77705;SDS011;66874;45.274;5.880;2023-05-29T14:33:03;5.63;;;4.93;;
77705;SDS011;66874;45.274;5.880;2023-05-29T14:35:29;11.38;;;4.90;;
77705;SDS011;66874;45.274;5.880;2023-05-29T14:37:56;12.88;;;5.68;;
77705;SDS011;66874;45.274;5.880;2023-05-29T14:40:21;4.85;;;4.35;;
77705;SDS011;66874;45.274;5.880;2023-05-29T14:42:47;7.80;;;5.33;;
77705;SDS011;66874;45.274;5.880;2023-05-29T14:45:12;7.77;;;5.13;;
77705;SDS011;66874;45.274;5.880;2023-05-29T14:47:39;8.00;;;4.87;;
77705;SDS011;66874;45.274;5.880;2023-05-29T14:52:30;5.57;;;4.97;;
77705;SDS011;66874;45.274;5.880;2023-05-29T14:54:56;6.45;;;5.28;;
77705;SDS011;66874;45.274;5.880;2023-05-29T14:57:21;6.63;;;4.77;;
77705;SDS011;66874;45.274;5.880;2023-05-29T14:59:47;8.60;;;5.75;;
77705;SDS011;66874;45.274;5.880;2023-05-29T15:02:12;9.82;;;5.40;;
77705;SDS011;66874;45.274;5.880;2023-05-29T15:04:37;6.25;;;4.95;;
77705;SDS011;66874;45.274;5.880;2023-05-29T15:07:03;6.68;;;4.97;;
77705;SDS011;66874;45.274;5.880;2023-05-29T15:09:29;8.05;;;5.20;;
77705;SDS011;66874;45.274;5.880;2023-05-29T15:11:54;7.10;;;5.40;;
77705;SDS011;66874;45.274;5.880;2023-05-29T15:14:20;7.82;;;5.32;;
77705;SDS011;66874;45.274;5.880;2023-05-29T15:16:45;7.22;;;4.93;;
77705;SDS011;66874;45.274;5.880;2023-05-29T15:19:11;7.03;;;4.45;;
77705;SDS011;66874;45.274;5.880;2023-05-29T15:21:36;8.88;;;5.80;;
77705;SDS011;66874;45.274;5.880;2023-05-29T15:24:02;7.78;;;4.78;;
77705;SDS011;66874;45.274;5.880;2023-05-29T15:26:28;5.95;;;4.72;;
77705;SDS011;66874;45.274;5.880;2023-05-29T15:28:53;8.07;;;5.13;;
77705;SDS011;66874;45.274;5.880;2023-05-29T15:31:19;8.18;;;5.50;;
77705;SDS011;66874;45.274;5.880;2023-05-29T15:33:47;9.30;;;5.28;;
77705;SDS011;66874;45.274;5.880;2023-05-29T15:36:13;8.38;;;6.32;;